createdAt,value
2019-04-10T00:01:30.030Z,19.15
2019-04-10T00:04:00.792Z,18.75
2019-04-10T00:06:30.716Z,16.90
2019-04-10T00:09:00.929Z,16.67
2019-04-10T00:11:32.628Z,15.13
2019-04-10T00:14:02.964Z,15.48
2019-04-10T00:16:33.122Z,20.48
2019-04-10T00:19:04.483Z,11.55
2019-04-10T00:21:35.482Z,22.48
2019-04-10T00:24:06.040Z,26.40
2019-04-10T00:29:05.765Z,19.77
2019-04-10T00:31:36.011Z,23.32
2019-04-10T00:34:05.823Z,25.82
2019-04-10T00:36:35.682Z,19.40
2019-04-10T00:39:07.233Z,20.08
2019-04-10T00:41:37.368Z,19.45
2019-04-10T00:44:07.802Z,21.27
2019-04-10T00:49:07.998Z,25.45
2019-04-10T00:51:38.033Z,25.10
2019-04-10T00:54:08.065Z,24.50
2019-04-10T00:56:38.932Z,20.85
2019-04-10T00:59:10.216Z,23.65
2019-04-10T01:01:41.350Z,15.68
2019-04-10T01:04:12.364Z,19.15
2019-04-10T01:06:42.452Z,17.55
2019-04-10T01:09:13.206Z,16.07
2019-04-10T01:11:43.430Z,16.73
2019-04-10T01:14:13.721Z,19.00
2019-04-10T01:16:44.013Z,17.75
2019-04-10T01:19:13.966Z,17.37
2019-04-10T01:21:44.289Z,17.62
2019-04-10T01:24:14.307Z,16.57
2019-04-10T01:26:45.442Z,15.72
2019-04-10T01:29:15.538Z,20.57
2019-04-10T01:31:45.683Z,18.90
2019-04-10T01:34:15.607Z,20.45
2019-04-10T01:36:46.014Z,19.02
2019-04-10T01:39:17.964Z,18.98
2019-04-10T01:41:48.065Z,18.77
2019-04-10T01:44:18.214Z,21.00
2019-04-10T01:46:48.659Z,18.55
2019-04-10T01:49:19.630Z,20.15
2019-04-10T01:51:49.752Z,20.35
2019-04-10T01:54:19.700Z,20.88
2019-04-10T01:56:50.148Z,20.43
2019-04-10T02:01:59.243Z,19.52
2019-04-10T02:04:29.256Z,21.20
2019-04-10T02:06:59.955Z,20.32
2019-04-10T02:11:59.775Z,20.37
2019-04-10T02:14:30.023Z,20.25
2019-04-10T02:17:00.185Z,21.02
2019-04-10T02:19:30.265Z,20.65
2019-04-10T02:22:00.343Z,25.97
2019-04-10T02:24:31.316Z,27.95
2019-04-10T02:27:02.312Z,26.27
2019-04-10T02:29:35.660Z,50.52
2019-04-10T02:32:05.788Z,79.07
2019-04-10T02:34:37.014Z,67.03
2019-04-10T02:37:08.577Z,51.42
2019-04-10T02:39:44.726Z,79.00
2019-04-10T02:42:10.854Z,70.03
2019-04-10T02:44:41.636Z,69.75
2019-04-10T02:47:12.931Z,61.30
2019-04-10T02:49:44.631Z,49.48
2019-04-10T02:52:14.919Z,47.20
2019-04-10T02:54:46.005Z,50.45
2019-04-10T02:57:17.400Z,39.20
2019-04-10T02:59:48.872Z,40.10
2019-04-10T03:02:20.249Z,43.28
2019-04-10T03:04:50.957Z,44.15
2019-04-10T03:07:21.993Z,40.85
2019-04-10T03:10:02.317Z,35.92
2019-04-10T03:12:23.982Z,33.53
2019-04-10T03:14:54.968Z,32.45
2019-04-10T03:17:26.023Z,33.55
2019-04-10T03:19:56.169Z,35.73
2019-04-10T03:22:26.572Z,39.33
2019-04-10T03:24:57.543Z,38.38
2019-04-10T03:27:28.092Z,31.60
2019-04-10T03:32:50.360Z,32.58
2019-04-10T03:35:20.728Z,32.38
2019-04-10T03:37:50.862Z,33.55
2019-04-10T03:40:21.666Z,29.50
2019-04-10T03:42:52.946Z,30.25
2019-04-10T03:45:24.116Z,31.07
2019-04-10T03:47:55.793Z,27.85
2019-04-10T03:52:55.954Z,25.52
2019-04-10T03:55:27.158Z,26.45
2019-04-10T03:57:57.171Z,28.20
2019-04-10T04:00:27.881Z,27.32
2019-04-10T04:02:58.226Z,23.85
2019-04-10T04:05:28.820Z,21.35
2019-04-10T04:10:29.091Z,21.15
2019-04-10T04:13:00.132Z,19.62
2019-04-10T04:15:30.407Z,21.35
2019-04-10T04:18:00.432Z,19.45
2019-04-10T04:20:30.701Z,21.33
2019-04-10T04:23:01.394Z,19.67
2019-04-10T04:28:00.792Z,19.27
2019-04-10T04:30:31.996Z,18.07
2019-04-10T04:33:02.523Z,19.48
2019-04-10T04:35:32.630Z,17.67
2019-04-10T04:38:02.631Z,18.37
2019-04-10T04:40:33.564Z,19.23
2019-04-10T04:43:03.776Z,18.52
2019-04-10T04:45:33.805Z,16.35
2019-04-10T04:48:03.743Z,16.37
2019-04-10T04:50:34.220Z,19.30
2019-04-10T04:53:04.568Z,14.98
2019-04-10T04:55:37.380Z,13.20
2019-04-10T04:58:07.479Z,13.28
2019-04-10T05:00:37.658Z,13.35
2019-04-10T05:03:07.831Z,14.47
2019-04-10T05:05:37.794Z,14.43
2019-04-10T05:08:08.455Z,13.45
2019-04-10T05:10:38.368Z,13.50
2019-04-10T05:13:08.417Z,13.25
2019-04-10T05:15:38.344Z,12.90
2019-04-10T05:18:08.275Z,12.88
2019-04-10T05:20:45.387Z,13.62
2019-04-10T05:23:10.287Z,13.08
2019-04-10T05:25:41.404Z,12.28
2019-04-10T05:28:11.606Z,12.70
2019-04-10T05:30:41.536Z,19.70
2019-04-10T05:33:12.017Z,17.48
2019-04-10T05:38:12.287Z,11.33
2019-04-10T05:40:42.306Z,12.82
2019-04-10T05:43:13.259Z,11.38
2019-04-10T05:45:43.492Z,12.28
2019-04-10T05:48:13.528Z,12.50
2019-04-10T05:50:53.072Z,13.15
2019-04-10T05:53:16.263Z,13.10
2019-04-10T05:55:47.281Z,11.25
2019-04-10T05:58:17.532Z,12.23
2019-04-10T06:00:47.611Z,10.58
2019-04-10T06:03:18.434Z,12.37
2019-04-10T06:05:48.709Z,13.80
2019-04-10T06:08:18.756Z,15.15
2019-04-10T06:10:49.790Z,15.98
2019-04-10T06:13:20.052Z,17.05
2019-04-10T06:15:50.908Z,23.42
2019-04-10T06:18:21.142Z,12.82
2019-04-10T06:20:50.984Z,12.07
2019-04-10T06:23:21.271Z,15.58
2019-04-10T06:25:51.341Z,11.95
2019-04-10T06:28:24.653Z,11.50
2019-04-10T06:30:54.529Z,11.38
2019-04-10T06:33:25.873Z,11.25
2019-04-10T06:35:57.416Z,9.95
2019-04-10T06:38:28.579Z,9.95
2019-04-10T06:40:59.720Z,9.75
2019-04-10T06:43:30.851Z,8.83
2019-04-10T06:46:01.025Z,9.80
2019-04-10T06:48:32.113Z,10.38
2019-04-10T06:51:02.207Z,9.40
2019-04-10T06:53:33.118Z,9.38
2019-04-10T06:56:04.887Z,10.10
2019-04-10T06:58:35.803Z,9.50
2019-04-10T07:01:06.355Z,11.85
2019-04-10T07:03:49.647Z,12.33
2019-04-10T07:06:15.608Z,13.72
2019-04-10T07:08:40.271Z,12.55
2019-04-10T07:11:12.907Z,10.48
2019-04-10T07:13:42.992Z,10.60
2019-04-10T07:16:12.965Z,10.65
2019-04-10T07:18:45.888Z,9.93
2019-04-10T07:21:14.690Z,11.63
2019-04-10T07:23:45.208Z,10.80
2019-04-10T07:26:21.768Z,10.93
2019-04-10T07:28:47.870Z,10.98
2019-04-10T07:31:20.029Z,7.03
2019-04-10T07:36:20.921Z,14.55
2019-04-10T07:38:53.878Z,12.73
2019-04-10T07:41:25.648Z,11.60
2019-04-10T07:43:56.771Z,12.28
2019-04-10T07:46:26.263Z,9.95
2019-04-10T07:48:56.541Z,11.50
2019-04-10T07:51:27.642Z,9.33
2019-04-10T07:53:57.819Z,9.05
2019-04-10T07:56:27.863Z,9.25
2019-04-10T07:58:57.794Z,7.60
2019-04-10T08:01:28.036Z,7.42
2019-04-10T08:03:58.279Z,7.90
2019-04-10T08:06:28.223Z,7.58
2019-04-10T08:08:59.091Z,8.10
2019-04-10T08:11:29.626Z,8.88
2019-04-10T08:14:01.152Z,8.45
2019-04-10T08:16:31.287Z,7.72
2019-04-10T08:19:01.919Z,7.17
2019-04-10T08:21:32.941Z,6.12
2019-04-10T08:24:02.974Z,5.37
2019-04-10T08:26:32.923Z,5.78
2019-04-10T08:29:03.358Z,5.70
2019-04-10T08:31:33.388Z,5.45
2019-04-10T08:34:03.430Z,5.72
2019-04-10T08:36:33.265Z,6.20
2019-04-10T08:39:04.714Z,5.22
2019-04-10T08:41:35.159Z,5.20
2019-04-10T08:44:06.410Z,7.08
2019-04-10T08:46:36.474Z,7.95
2019-04-10T08:49:06.419Z,7.15
2019-04-10T08:51:36.392Z,7.20
2019-04-10T08:54:06.382Z,6.00
2019-04-10T08:56:36.560Z,6.25
2019-04-10T08:59:07.581Z,7.60
2019-04-10T09:01:37.714Z,9.13
2019-04-10T09:04:07.869Z,6.90
2019-04-10T09:06:37.904Z,29.35
2019-04-10T09:09:08.218Z,16.17
2019-04-10T09:11:38.592Z,9.33
2019-04-10T09:14:08.727Z,11.70
2019-04-10T09:16:38.760Z,6.00
2019-04-10T09:19:09.682Z,5.25
2019-04-10T09:21:39.888Z,6.58
2019-04-10T09:24:10.235Z,6.42
2019-04-10T09:26:40.356Z,5.72
2019-04-10T09:29:10.166Z,6.95
2019-04-10T09:31:40.101Z,8.45
2019-04-10T09:34:10.100Z,8.95
2019-04-10T09:36:41.734Z,9.23
2019-04-10T09:39:11.664Z,5.05
2019-04-10T09:41:41.859Z,9.35
2019-04-10T09:44:12.320Z,7.10
2019-04-10T09:46:42.889Z,7.25
2019-04-10T09:49:12.917Z,7.72
2019-04-10T09:51:42.765Z,4.60
2019-04-10T09:54:13.369Z,4.47
2019-04-10T09:56:44.208Z,4.33
2019-04-10T09:59:14.151Z,3.98
2019-04-10T10:01:44.467Z,4.55
2019-04-10T10:04:15.366Z,8.30
2019-04-10T10:06:45.433Z,5.22
2019-04-10T10:09:15.376Z,4.55
2019-04-10T10:11:45.302Z,5.58
2019-04-10T10:16:44.388Z,5.37
2019-04-10T10:19:14.294Z,4.75
2019-04-10T10:21:44.906Z,4.60
2019-04-10T10:24:14.780Z,5.22
2019-04-10T10:29:15.522Z,4.70
2019-04-10T10:31:46.473Z,4.40
2019-04-10T10:34:18.428Z,4.70
2019-04-10T10:36:50.645Z,6.28
2019-04-10T10:39:21.329Z,6.53
2019-04-10T10:41:52.396Z,5.40
2019-04-10T10:44:22.431Z,6.30
2019-04-10T10:46:52.668Z,4.30
2019-04-10T10:49:22.728Z,4.87
2019-04-10T10:51:53.320Z,5.40
2019-04-10T10:54:23.399Z,6.70
2019-04-10T10:56:53.435Z,4.95
2019-04-10T10:59:23.372Z,4.70
2019-04-10T11:01:53.844Z,4.83
2019-04-10T11:04:24.170Z,5.55
2019-04-10T11:06:59.950Z,5.22
2019-04-10T11:09:26.259Z,5.50
2019-04-10T11:11:56.220Z,6.60
2019-04-10T11:14:27.703Z,6.25
2019-04-10T11:16:57.818Z,6.72
2019-04-10T11:19:29.073Z,7.05
2019-04-10T11:21:59.332Z,6.97
2019-04-10T11:24:29.427Z,6.47
2019-04-10T11:27:00.065Z,6.50
2019-04-10T11:29:32.539Z,7.17
2019-04-10T11:32:06.756Z,6.85
2019-04-10T11:34:38.221Z,7.03
2019-04-10T11:37:23.414Z,7.50
2019-04-10T11:39:43.529Z,6.40
2019-04-10T11:42:12.200Z,6.83
2019-04-10T11:44:45.342Z,6.90
2019-04-10T11:47:14.900Z,6.40
2019-04-10T11:49:47.167Z,7.55
2019-04-10T11:52:24.425Z,8.28
2019-04-10T11:54:49.247Z,11.08
2019-04-10T11:57:20.436Z,11.95
2019-04-10T11:59:50.954Z,12.25
2019-04-10T12:02:24.713Z,13.65
2019-04-10T12:04:56.051Z,9.50
2019-04-10T12:07:54.966Z,7.58
2019-04-10T12:12:28.025Z,6.80
2019-04-10T12:14:59.732Z,5.47
2019-04-10T12:17:29.849Z,5.15
2019-04-10T12:20:00.543Z,5.03
2019-04-10T12:22:31.642Z,5.50
2019-04-10T12:25:02.835Z,5.17
2019-04-10T12:27:33.518Z,5.12
2019-04-10T12:30:04.845Z,5.58
2019-04-10T12:32:35.033Z,4.95
2019-04-10T12:35:06.952Z,6.00
2019-04-10T12:37:37.174Z,7.20
2019-04-10T12:40:09.755Z,7.47
2019-04-10T12:42:40.666Z,6.60
2019-04-10T12:45:11.450Z,5.78
2019-04-10T12:47:41.962Z,5.15
2019-04-10T12:50:12.359Z,4.47
2019-04-10T12:52:42.884Z,4.80
2019-04-10T12:55:14.877Z,7.15
2019-04-10T12:57:45.424Z,9.08
2019-04-10T13:00:18.740Z,13.13
2019-04-10T13:02:48.781Z,11.80
2019-04-10T13:05:18.927Z,11.53
2019-04-10T13:10:18.336Z,9.40
2019-04-10T13:12:49.282Z,7.30
2019-04-10T13:15:19.361Z,5.05
2019-04-10T13:20:19.883Z,6.33
2019-04-10T13:22:50.685Z,6.28
2019-04-10T13:25:21.859Z,5.25
2019-04-10T13:27:53.043Z,5.33
2019-04-10T13:30:22.985Z,4.75
2019-04-10T13:32:53.027Z,5.72
2019-04-10T13:35:24.126Z,6.87
2019-04-10T13:37:54.840Z,4.37
2019-04-10T13:40:25.749Z,4.20
2019-04-10T13:42:55.818Z,4.22
2019-04-10T13:47:54.963Z,4.30
2019-04-10T13:52:55.063Z,5.17
2019-04-10T13:55:26.293Z,4.55
2019-04-10T13:57:57.118Z,5.05
2019-04-10T14:00:41.080Z,7.50
2019-04-10T14:03:12.234Z,13.83
2019-04-10T14:05:43.282Z,9.30
2019-04-10T14:08:14.598Z,6.92
2019-04-10T14:10:44.726Z,10.08
2019-04-10T14:13:15.712Z,11.53
2019-04-10T14:15:46.482Z,8.10
2019-04-10T14:18:18.535Z,7.50
2019-04-10T14:20:49.593Z,8.73
2019-04-10T14:23:22.208Z,7.12
2019-04-10T14:25:53.985Z,7.30
2019-04-10T14:28:27.096Z,7.00
2019-04-10T14:30:59.980Z,7.80
2019-04-10T14:33:30.395Z,7.70
2019-04-10T14:38:30.755Z,10.20
2019-04-10T14:41:01.167Z,9.73
2019-04-10T14:46:00.690Z,7.65
2019-04-10T14:48:30.731Z,7.70
2019-04-10T14:51:00.791Z,7.60
2019-04-10T14:53:31.145Z,7.12
2019-04-10T14:58:31.287Z,7.53
2019-04-10T15:01:02.803Z,14.43
2019-04-10T15:03:33.607Z,11.33
2019-04-10T15:06:04.992Z,12.03
2019-04-10T15:08:35.648Z,11.95
2019-04-10T15:13:36.141Z,9.70
2019-04-10T15:16:07.137Z,8.83
2019-04-10T15:18:37.291Z,6.50
2019-04-10T15:21:07.352Z,6.08
2019-04-10T15:23:37.285Z,6.80
2019-04-10T15:26:08.021Z,7.65
2019-04-10T15:28:39.384Z,7.53
2019-04-10T15:31:09.546Z,6.83
2019-04-10T15:33:39.589Z,6.55
2019-04-10T15:36:09.518Z,6.83
2019-04-10T15:38:40.180Z,7.62
2019-04-10T15:41:10.598Z,8.25
2019-04-10T15:43:41.315Z,8.85
2019-04-10T15:46:11.402Z,9.40
2019-04-10T15:48:41.887Z,9.50
2019-04-10T15:51:12.043Z,8.50
2019-04-10T15:53:42.926Z,10.63
2019-04-10T15:56:13.800Z,10.43
2019-04-10T15:58:43.870Z,9.53
2019-04-10T16:01:15.973Z,8.78
2019-04-10T16:03:47.824Z,7.22
2019-04-10T16:06:17.835Z,6.90
2019-04-10T16:08:48.286Z,8.85
2019-04-10T16:11:32.236Z,9.03
2019-04-10T16:14:16.666Z,9.28
2019-04-10T16:16:42.274Z,9.30
2019-04-10T16:19:20.465Z,8.40
2019-04-10T16:21:52.116Z,8.98
2019-04-10T16:24:22.908Z,10.40
2019-04-10T16:26:53.711Z,11.40
2019-04-10T16:29:25.216Z,11.68
2019-04-10T16:31:56.509Z,11.12
2019-04-10T16:34:26.923Z,18.98
2019-04-10T16:36:57.717Z,15.35
2019-04-10T16:39:27.930Z,12.10
2019-04-10T16:42:00.037Z,15.10
2019-04-10T16:44:30.129Z,13.18
2019-04-10T16:47:00.058Z,17.67
2019-04-10T16:49:30.895Z,11.25
2019-04-10T16:52:00.943Z,10.20
2019-04-10T16:54:31.344Z,13.28
2019-04-10T16:57:02.462Z,10.13
2019-04-10T16:59:32.597Z,9.40
2019-04-10T17:02:03.727Z,9.60
2019-04-10T17:04:34.203Z,10.55
2019-04-10T17:07:04.134Z,11.55
2019-04-10T17:09:34.502Z,12.30
2019-04-10T17:12:06.290Z,12.78
2019-04-10T17:14:37.743Z,18.00
2019-04-10T17:17:08.360Z,31.10
2019-04-10T17:19:48.853Z,19.77
2019-04-10T17:22:11.046Z,15.20
2019-04-10T17:24:41.829Z,11.85
2019-04-10T17:27:13.110Z,10.38
2019-04-10T17:29:43.271Z,10.55
2019-04-10T17:32:13.272Z,12.60
2019-04-10T17:34:43.217Z,14.53
2019-04-10T17:37:14.391Z,22.73
2019-04-10T17:39:44.535Z,30.57
2019-04-10T17:42:14.584Z,24.30
2019-04-10T17:44:45.641Z,13.15
2019-04-10T17:47:16.599Z,22.50
2019-04-10T17:49:47.675Z,12.75
2019-04-10T17:52:18.686Z,12.15
2019-04-10T17:54:49.771Z,11.80
2019-04-10T17:57:19.705Z,13.20
2019-04-10T17:59:50.979Z,12.23
2019-04-10T18:02:21.424Z,13.32
2019-04-10T18:04:51.329Z,15.15
2019-04-10T18:07:24.462Z,13.78
2019-04-10T18:09:54.511Z,13.35
2019-04-10T18:12:24.539Z,12.65
2019-04-10T18:14:55.567Z,12.95
2019-04-10T18:17:26.931Z,13.00
2019-04-10T18:19:58.729Z,13.62
2019-04-10T18:24:58.924Z,14.13
2019-04-10T18:27:30.032Z,15.13
2019-04-10T18:30:00.041Z,15.48
2019-04-10T18:32:30.047Z,15.15
2019-04-10T18:35:00.445Z,17.00
2019-04-10T18:37:31.027Z,15.48
2019-04-10T18:40:01.076Z,17.12
2019-04-10T18:42:32.915Z,17.48
2019-04-10T18:47:34.714Z,20.65
2019-04-10T18:50:04.426Z,25.00
2019-04-10T18:52:35.098Z,22.48
2019-04-10T18:55:06.081Z,24.77
2019-04-10T18:57:36.038Z,24.18
2019-04-10T19:00:24.293Z,25.95
2019-04-10T19:02:55.849Z,24.57
2019-04-10T19:05:27.849Z,25.52
2019-04-10T19:07:58.735Z,24.32
2019-04-10T19:10:30.601Z,23.30
2019-04-10T19:13:01.381Z,22.45
2019-04-10T19:15:31.580Z,22.67
2019-04-10T19:18:03.592Z,21.93
2019-04-10T19:20:33.894Z,23.07
2019-04-10T19:23:04.419Z,22.93
2019-04-10T19:25:34.733Z,22.30
2019-04-10T19:28:06.642Z,21.93
2019-04-10T19:30:39.367Z,22.17
2019-04-10T19:33:10.512Z,19.95
2019-04-10T19:35:41.397Z,21.37
2019-04-10T19:38:13.408Z,22.87
2019-04-10T19:40:43.848Z,21.05
2019-04-10T19:43:14.040Z,20.80
2019-04-10T19:45:44.012Z,19.87
2019-04-10T19:48:15.078Z,18.73
2019-04-10T19:50:45.644Z,17.40
2019-04-10T19:55:46.243Z,17.55
2019-04-10T19:58:16.304Z,17.75
2019-04-10T20:00:46.759Z,16.75
2019-04-10T20:03:17.922Z,16.60
2019-04-10T20:05:47.849Z,16.07
2019-04-10T20:08:17.931Z,17.60
2019-04-10T20:10:47.921Z,17.25
2019-04-10T20:13:18.708Z,16.65
2019-04-10T20:15:48.952Z,16.55
2019-04-10T20:18:19.148Z,16.12
2019-04-10T20:20:49.294Z,16.57
2019-04-10T20:23:19.543Z,15.72
2019-04-10T20:25:50.534Z,15.25
2019-04-10T20:28:20.661Z,15.38
2019-04-10T20:30:52.310Z,17.12
2019-04-10T20:33:22.909Z,17.45
2019-04-10T20:35:54.025Z,18.55
2019-04-10T20:38:25.248Z,18.57
2019-04-10T20:40:55.315Z,18.57
2019-04-10T20:43:28.112Z,18.90
2019-04-10T20:45:58.059Z,20.72
2019-04-10T20:48:28.683Z,19.35
2019-04-10T20:53:28.783Z,18.40
2019-04-10T20:55:59.955Z,18.42
2019-04-10T20:58:29.982Z,17.10
2019-04-10T21:00:59.957Z,19.48
2019-04-10T21:03:30.255Z,20.48
2019-04-10T21:06:00.505Z,17.60
2019-04-10T21:08:30.732Z,20.65
2019-04-10T21:11:00.773Z,24.37
2019-04-10T21:13:31.833Z,22.67
2019-04-10T21:16:02.971Z,22.25
2019-04-10T21:18:33.515Z,20.97
2019-04-10T21:21:03.804Z,21.25
2019-04-10T21:23:33.798Z,19.27
2019-04-10T21:26:03.963Z,18.92
2019-04-10T21:28:34.749Z,19.20
2019-04-10T21:31:22.861Z,19.23
2019-04-10T21:34:11.999Z,17.87
2019-04-10T21:36:43.450Z,19.02
2019-04-10T21:39:13.816Z,19.82
2019-04-10T21:41:44.598Z,18.07
2019-04-10T21:44:16.035Z,18.87
2019-04-10T21:46:46.693Z,21.37
2019-04-10T21:49:16.844Z,21.07
2019-04-10T21:51:46.777Z,22.52
2019-04-10T21:54:16.818Z,22.22
2019-04-10T21:56:46.853Z,22.67
2019-04-10T21:59:16.786Z,22.90
2019-04-10T22:01:47.236Z,20.75
2019-04-10T22:04:18.868Z,20.05
2019-04-10T22:06:51.539Z,18.92
2019-04-10T22:09:26.422Z,20.72
2019-04-10T22:11:58.450Z,20.32
2019-04-10T22:14:28.423Z,19.52
2019-04-10T22:16:58.709Z,23.18
2019-04-10T22:19:28.948Z,20.25
2019-04-10T22:21:58.921Z,21.50
2019-04-10T22:24:29.847Z,20.68
2019-04-10T22:27:01.099Z,20.43
2019-04-10T22:29:31.218Z,21.35
2019-04-10T22:32:02.029Z,21.15
2019-04-10T22:34:34.247Z,21.85
2019-04-10T22:37:06.261Z,22.75
2019-04-10T22:39:36.508Z,21.37
2019-04-10T22:42:07.565Z,20.35
2019-04-10T22:44:42.549Z,21.12
2019-04-10T22:47:09.278Z,20.25
2019-04-10T22:49:39.371Z,19.42
2019-04-10T22:52:09.363Z,18.85
2019-04-10T22:54:39.601Z,20.75
2019-04-10T22:57:10.488Z,19.07
2019-04-10T22:59:40.480Z,19.40
2019-04-10T23:02:12.063Z,19.55
2019-04-10T23:04:42.828Z,19.95
2019-04-10T23:09:42.070Z,18.87
2019-04-10T23:12:12.103Z,18.02
2019-04-10T23:14:42.787Z,18.35
2019-04-10T23:17:12.794Z,16.62
2019-04-10T23:19:42.826Z,17.50
2019-04-10T23:22:13.413Z,18.17
2019-04-10T23:24:43.498Z,18.17
2019-04-10T23:27:13.574Z,17.15
2019-04-10T23:29:44.340Z,17.98
2019-04-10T23:32:15.215Z,17.95
2019-04-10T23:34:45.306Z,17.27
2019-04-10T23:37:15.337Z,19.02
2019-04-10T23:39:46.145Z,17.45
2019-04-10T23:42:16.143Z,19.25
2019-04-10T23:44:46.063Z,19.17
2019-04-10T23:47:16.031Z,17.62
2019-04-10T23:49:46.036Z,17.90
2019-04-10T23:52:16.073Z,18.48
2019-04-10T23:54:46.104Z,17.15
2019-04-10T23:57:16.956Z,17.40
2019-04-10T23:59:47.014Z,16.90
